Time;durP1;ratioP1;P1;durP2;ratioP2;P2;SDS_P1;SDS_P2;PMS_P1;PMS_P2;Temp;Humidity;BMP_temperature;BMP_pressure;BME280_temperature;BME280_humidity;BME280_pressure;Samples;Min_cycle;Max_cycle;Signal;HPM_P1;HPM_P2
2023/06/30 00:00:12;;;;;;;1.90;1.00;;;23.50;1.00;;;;;;5118059;28;20419;-59
2023/06/30 00:02:39;;;;;;;1.50;1.20;;;23.50;1.00;;;;;;5116346;28;20899;-59
2023/06/30 00:05:07;;;;;;;1.83;1.02;;;23.40;1.00;;;;;;5117057;28;20425;-59
2023/06/30 00:07:34;;;;;;;2.05;1.10;;;23.40;1.00;;;;;;5117993;28;20852;-59
2023/06/30 00:10:01;;;;;;;2.30;1.00;;;23.30;1.00;;;;;;5117725;28;20443;-60
2023/06/30 00:12:28;;;;;;;1.70;1.10;;;23.40;1.00;;;;;;5117803;28;20428;-59
2023/06/30 00:14:56;;;;;;;1.80;1.10;;;23.40;1.00;;;;;;5117428;28;20438;-61
2023/06/30 00:17:23;;;;;;;1.60;1.00;;;23.40;1.00;;;;;;5116865;28;20416;-60
2023/06/30 00:19:50;;;;;;;1.73;1.10;;;23.50;7.00;;;;;;5116921;28;20477;-60
2023/06/30 00:22:19;;;;;;;1.65;1.20;;;23.40;1.30;;;;;;5117256;28;20833;-61
2023/06/30 00:24:47;;;;;;;3.03;1.20;;;23.40;1.00;;;;;;5117813;28;20985;-60
2023/06/30 00:27:14;;;;;;;1.60;1.13;;;23.40;16.10;;;;;;5116851;28;20459;-60
2023/06/30 00:29:41;;;;;;;2.50;1.20;;;23.40;27.60;;;;;;5116246;28;20785;-59
2023/06/30 00:32:09;;;;;;;1.47;1.20;;;23.30;54.00;;;;;;5115720;28;20420;-58
2023/06/30 00:34:36;;;;;;;1.30;1.13;;;23.30;94.00;;;;;;5115616;28;20493;-60
2023/06/30 00:37:03;;;;;;;1.20;1.10;;;23.30;98.60;;;;;;5115502;28;20718;-60
2023/06/30 00:39:30;;;;;;;1.35;1.25;;;23.40;52.00;;;;;;5115116;28;20848;-60
2023/06/30 00:41:57;;;;;;;2.88;1.30;;;23.50;43.30;;;;;;5115239;28;20574;-60
2023/06/30 00:44:25;;;;;;;1.50;1.10;;;23.50;49.30;;;;;;5115421;28;20420;-57
2023/06/30 00:46:52;;;;;;;1.53;1.10;;;23.40;55.30;;;;;;5116756;28;20720;-60
2023/06/30 00:49:20;;;;;;;1.75;1.20;;;23.30;92.90;;;;;;5116246;28;20449;-60
2023/06/30 00:51:47;;;;;;;1.50;1.20;;;23.20;99.90;;;;;;5116812;28;20493;-58
2023/06/30 00:54:15;;;;;;;1.98;1.08;;;23.10;99.90;;;;;;5116172;28;20432;-61
2023/06/30 00:56:42;;;;;;;3.25;1.20;;;22.90;99.90;;;;;;5116048;28;20428;-59
2023/06/30 00:59:09;;;;;;;1.80;1.30;;;22.90;99.90;;;;;;5117141;28;20816;-61
2023/06/30 01:01:44;;;;;;;2.22;1.20;;;22.80;99.90;;;;;;5116958;28;20432;-60
2023/06/30 01:04:18;;;;;;;2.03;1.20;;;22.70;99.90;;;;;;5116772;28;20425;-61
2023/06/30 01:06:56;;;;;;;1.30;1.10;;;22.70;99.90;;;;;;5116595;28;20531;-60
2023/06/30 01:09:28;;;;;;;1.20;1.10;;;22.70;99.90;;;;;;5116301;28;20436;-60
2023/06/30 01:11:55;;;;;;;3.33;1.30;;;22.70;99.90;;;;;;5116662;28;20506;-60
2023/06/30 01:14:24;;;;;;;1.90;1.10;;;22.70;99.90;;;;;;5116140;28;20424;-60
2023/06/30 01:16:52;;;;;;;1.60;1.40;;;22.70;99.90;;;;;;5116403;28;20508;-60
2023/06/30 01:19:28;;;;;;;2.30;1.20;;;22.80;99.90;;;;;;5116382;28;20485;-60
2023/06/30 01:22:04;;;;;;;1.50;1.08;;;22.80;99.90;;;;;;5116168;28;20504;-60
2023/06/30 01:24:35;;;;;;;1.20;1.00;;;22.80;99.90;;;;;;5115997;28;20443;-60
2023/06/30 01:27:02;;;;;;;1.20;1.10;;;22.80;99.90;;;;;;5116790;28;20464;-60
2023/06/30 01:29:30;;;;;;;1.20;1.00;;;22.80;99.90;;;;;;5115963;28;20477;-61
2023/06/30 01:31:58;;;;;;;1.77;1.10;;;22.80;99.90;;;;;;5116104;28;20420;-60
2023/06/30 01:34:25;;;;;;;1.45;1.00;;;22.80;99.90;;;;;;5115920;28;20427;-60
2023/06/30 01:36:52;;;;;;;1.40;0.98;;;22.80;99.90;;;;;;5116105;28;20436;-60
2023/06/30 01:39:21;;;;;;;1.40;1.15;;;22.80;99.90;;;;;;5115903;28;20492;-60
2023/06/30 01:41:48;;;;;;;1.20;1.10;;;22.70;99.90;;;;;;5116081;28;20493;-60
2023/06/30 01:44:15;;;;;;;1.40;1.10;;;22.70;1.00;;;;;;5115674;28;20438;-60
2023/06/30 01:46:43;;;;;;;1.70;1.20;;;22.60;1.00;;;;;;5115578;28;20421;-59
2023/06/30 01:49:11;;;;;;;1.52;1.20;;;22.60;1.00;;;;;;5114432;28;20424;-60
2023/06/30 01:51:38;;;;;;;1.40;1.10;;;22.50;1.00;;;;;;5115961;28;20431;-60
2023/06/30 01:54:05;;;;;;;1.50;1.20;;;22.50;3.70;;;;;;5115686;28;20790;-60
2023/06/30 01:56:35;;;;;;;1.40;1.10;;;22.50;52.50;;;;;;5115713;28;20428;-60
2023/06/30 01:59:02;;;;;;;1.50;1.30;;;22.50;99.90;;;;;;5115723;28;20420;-59
2023/06/30 02:01:29;;;;;;;1.40;1.20;;;22.40;99.90;;;;;;5115706;28;20428;-60
2023/06/30 02:03:56;;;;;;;1.60;1.30;;;22.40;99.90;;;;;;5115735;28;20847;-60
2023/06/30 02:06:23;;;;;;;2.30;1.20;;;22.30;99.90;;;;;;5115764;28;20442;-61
2023/06/30 02:08:50;;;;;;;1.15;1.02;;;22.20;99.90;;;;;;5115323;28;20481;-60
2023/06/30 02:11:17;;;;;;;2.42;1.17;;;22.30;99.90;;;;;;5115954;28;20416;-60
2023/06/30 02:13:46;;;;;;;1.70;1.10;;;22.30;99.90;;;;;;5115574;28;20433;-60
2023/06/30 02:16:12;;;;;;;1.70;1.20;;;22.40;99.90;;;;;;5115438;28;20724;-60
2023/06/30 02:18:40;;;;;;;2.72;1.40;;;22.40;99.90;;;;;;5115327;28;20496;-59
2023/06/30 02:21:07;;;;;;;3.50;1.13;;;22.40;99.90;;;;;;5115460;28;20420;-59
2023/06/30 02:23:34;;;;;;;2.90;1.20;;;22.30;1.00;;;;;;5115468;28;20416;-60
2023/06/30 02:26:01;;;;;;;1.50;1.40;;;22.20;1.00;;;;;;5115681;28;20477;-60
2023/06/30 02:28:28;;;;;;;1.60;1.10;;;22.20;1.00;;;;;;5115742;28;20485;-60
2023/06/30 02:30:57;;;;;;;1.40;1.20;;;22.20;6.50;;;;;;5115351;28;20423;-59
2023/06/30 02:33:24;;;;;;;1.40;1.30;;;22.20;99.90;;;;;;5115347;28;20427;-60
2023/06/30 02:35:51;;;;;;;1.60;1.20;;;22.20;99.90;;;;;;5115210;28;20436;-61
2023/06/30 02:38:18;;;;;;;1.90;1.10;;;22.20;99.90;;;;;;5115448;28;20785;-60
2023/06/30 02:40:45;;;;;;;1.50;1.13;;;22.10;99.90;;;;;;5115202;28;20423;-60
2023/06/30 02:43:12;;;;;;;1.15;1.00;;;22.20;99.90;;;;;;5115433;28;20424;-60
2023/06/30 02:45:39;;;;;;;2.10;1.02;;;22.20;58.50;;;;;;5115420;28;20423;-60
2023/06/30 02:48:08;;;;;;;1.42;1.10;;;22.20;1.00;;;;;;5115231;28;20460;-60
2023/06/30 02:50:35;;;;;;;1.60;1.20;;;22.20;1.00;;;;;;5114712;28;20739;-59
2023/06/30 02:53:02;;;;;;;1.50;1.23;;;22.30;1.00;;;;;;5117726;28;20420;-59
2023/06/30 02:55:29;;;;;;;1.67;1.13;;;22.40;1.00;;;;;;5118066;28;20435;-59
2023/06/30 02:57:58;;;;;;;1.90;1.20;;;22.30;1.00;;;;;;5118838;28;20428;-60
2023/06/30 03:00:25;;;;;;;1.83;1.20;;;22.30;1.00;;;;;;5119109;28;20521;-60
2023/06/30 03:02:52;;;;;;;1.30;1.10;;;22.30;1.00;;;;;;5118511;28;20489;-59
2023/06/30 03:05:20;;;;;;;1.58;1.30;;;22.20;1.00;;;;;;5118651;28;20431;-60
2023/06/30 03:07:47;;;;;;;1.40;1.20;;;22.20;44.60;;;;;;5118862;28;20431;-60
2023/06/30 03:10:14;;;;;;;1.63;1.20;;;22.20;30.40;;;;;;5118591;28;20438;-60
2023/06/30 03:12:41;;;;;;;1.50;1.30;;;22.00;99.90;;;;;;5118062;28;20476;-60
2023/06/30 03:15:09;;;;;;;2.10;1.33;;;22.00;1.00;;;;;;5118815;28;20427;-60
2023/06/30 03:17:36;;;;;;;1.73;1.30;;;22.00;1.00;;;;;;5117012;28;20439;-59
2023/06/30 03:20:10;;;;;;;2.63;1.30;;;21.90;1.00;;;;;;5117253;28;20424;-59
2023/06/30 03:22:38;;;;;;;1.30;1.20;;;21.80;1.00;;;;;;5117278;28;20476;-59
2023/06/30 03:25:08;;;;;;;1.40;1.20;;;21.80;1.00;;;;;;5117280;28;20488;-59
2023/06/30 03:27:35;;;;;;;1.40;1.20;;;21.80;1.00;;;;;;5117110;28;20505;-60
2023/06/30 03:30:03;;;;;;;2.10;1.30;;;21.80;1.00;;;;;;5117195;28;20440;-60
2023/06/30 03:32:31;;;;;;;1.50;1.40;;;21.80;7.80;;;;;;5116963;28;20426;-60
2023/06/30 03:34:58;;;;;;;1.80;1.40;;;21.70;99.90;;;;;;5118449;28;20778;-59
2023/06/30 03:37:25;;;;;;;1.50;1.30;;;21.70;99.90;;;;;;5118532;28;20839;-59
2023/06/30 03:39:53;;;;;;;1.33;1.20;;;21.70;99.90;;;;;;5117186;28;20424;-61
2023/06/30 03:42:20;;;;;;;1.50;1.30;;;21.70;99.90;;;;;;5116348;28;20428;-61
2023/06/30 03:44:48;;;;;;;1.40;1.20;;;21.80;1.00;;;;;;5116579;28;20424;-60
2023/06/30 03:47:15;;;;;;;1.45;1.20;;;21.90;1.00;;;;;;5116710;28;20825;-61
2023/06/30 03:49:42;;;;;;;3.20;1.50;;;22.00;1.00;;;;;;5115729;28;20424;-59
2023/06/30 03:52:09;;;;;;;1.40;1.20;;;22.10;1.00;;;;;;5116983;28;20431;-59
2023/06/30 03:54:36;;;;;;;2.20;1.40;;;22.20;99.90;;;;;;5117764;28;20477;-60
2023/06/30 03:57:05;;;;;;;2.10;1.40;;;22.20;99.90;;;;;;5117481;28;20735;-58
2023/06/30 03:59:32;;;;;;;2.30;1.30;;;22.10;1.00;;;;;;5117973;28;20420;-59
2023/06/30 04:01:59;;;;;;;1.42;1.20;;;22.00;1.00;;;;;;5116997;28;20506;-60
2023/06/30 04:04:26;;;;;;;2.22;1.50;;;21.90;1.00;;;;;;5116805;28;20485;-60
2023/06/30 04:06:53;;;;;;;1.95;1.50;;;21.80;1.00;;;;;;5117442;28;20425;-59
2023/06/30 04:09:20;;;;;;;1.70;1.50;;;21.80;1.00;;;;;;5117263;28;20432;-59
2023/06/30 04:11:48;;;;;;;1.60;1.50;;;21.70;99.90;;;;;;5117156;28;20428;-59
2023/06/30 04:14:16;;;;;;;1.45;1.20;;;21.70;99.90;;;;;;5117356;28;20434;-60
2023/06/30 04:16:43;;;;;;;1.50;1.30;;;21.60;99.90;;;;;;5116353;28;20489;-60
2023/06/30 04:19:10;;;;;;;1.70;1.30;;;21.60;99.90;;;;;;5114109;28;20428;-58
2023/06/30 04:21:37;;;;;;;2.30;1.50;;;21.60;99.90;;;;;;5113089;28;20431;-59
2023/06/30 04:24:05;;;;;;;3.10;1.60;;;21.60;99.90;;;;;;5112922;28;20778;-59
2023/06/30 04:26:32;;;;;;;2.90;1.60;;;21.60;99.90;;;;;;5113839;28;20843;-58
2023/06/30 04:28:59;;;;;;;2.10;1.58;;;21.60;99.90;;;;;;5116056;28;20776;-59
2023/06/30 04:31:28;;;;;;;1.70;1.50;;;21.50;99.90;;;;;;5116050;28;20439;-59
2023/06/30 04:33:55;;;;;;;2.00;1.20;;;21.40;1.00;;;;;;5114097;28;20420;-59
2023/06/30 04:36:22;;;;;;;2.90;1.50;;;21.50;99.90;;;;;;5113890;28;20528;-59
2023/06/30 04:38:49;;;;;;;2.00;1.50;;;21.60;99.90;;;;;;5114765;28;20427;-60
2023/06/30 04:41:17;;;;;;;1.60;1.30;;;21.60;99.90;;;;;;5113956;28;20452;-59
2023/06/30 04:43:44;;;;;;;2.03;1.57;;;21.60;99.90;;;;;;5116026;28;20428;-60
2023/06/30 04:46:11;;;;;;;1.80;1.55;;;21.60;99.90;;;;;;5115462;28;20477;-59
2023/06/30 04:48:39;;;;;;;2.17;1.70;;;21.50;99.90;;;;;;5115918;28;20428;-60
2023/06/30 04:51:06;;;;;;;2.13;1.50;;;21.40;1.00;;;;;;5114613;28;20896;-60
2023/06/30 04:53:33;;;;;;;2.95;1.50;;;21.40;1.00;;;;;;5113199;28;20913;-59
2023/06/30 04:56:00;;;;;;;2.10;1.30;;;21.40;1.00;;;;;;5113021;28;20702;-59
2023/06/30 04:58:27;;;;;;;3.40;1.40;;;21.50;1.00;;;;;;5113147;28;20908;-60
2023/06/30 05:00:55;;;;;;;2.20;1.40;;;21.50;1.00;;;;;;5112286;28;20480;-58
2023/06/30 05:03:22;;;;;;;1.53;1.30;;;21.50;99.90;;;;;;5112935;28;20785;-58
2023/06/30 05:05:50;;;;;;;2.70;1.40;;;21.60;99.90;;;;;;5113557;28;20431;-58
2023/06/30 05:08:17;;;;;;;2.30;1.30;;;21.80;46.30;;;;;;5115394;28;20816;-59
2023/06/30 05:10:44;;;;;;;1.40;1.20;;;22.00;5.00;;;;;;5114809;28;20794;-58
2023/06/30 05:13:11;;;;;;;2.30;1.60;;;22.10;65.90;;;;;;5114289;28;20432;-59
2023/06/30 05:15:38;;;;;;;2.17;1.77;;;22.10;99.90;;;;;;5113804;28;20770;-58
2023/06/30 05:18:06;;;;;;;1.98;1.50;;;21.90;16.70;;;;;;5114538;28;20451;-58
2023/06/30 05:20:34;;;;;;;2.40;1.50;;;21.70;1.00;;;;;;5111666;28;20450;-59
2023/06/30 05:23:02;;;;;;;1.65;1.50;;;21.50;99.90;;;;;;5111330;28;20428;-58
2023/06/30 05:25:29;;;;;;;2.00;1.80;;;21.30;1.00;;;;;;5112074;28;20740;-58
2023/06/30 05:27:56;;;;;;;3.20;2.10;;;21.20;1.00;;;;;;5112171;28;20428;-57
2023/06/30 05:30:23;;;;;;;2.60;2.20;;;21.10;1.00;;;;;;5110922;28;20428;-57
2023/06/30 05:32:50;;;;;;;2.13;1.92;;;21.00;1.00;;;;;;5111289;28;20560;-55
2023/06/30 05:35:17;;;;;;;3.65;2.22;;;20.80;1.00;;;;;;5112127;28;20416;-56
2023/06/30 05:37:44;;;;;;;2.92;2.58;;;20.80;7.10;;;;;;5112597;28;20747;-53
2023/06/30 05:40:13;;;;;;;2.90;2.60;;;20.70;3.80;;;;;;5114634;28;20778;-56
2023/06/30 05:42:40;;;;;;;3.35;3.05;;;20.50;50.60;;;;;;5113875;28;20494;-56
2023/06/30 05:45:08;;;;;;;3.65;2.30;;;20.20;84.40;;;;;;5113026;28;20424;-55
2023/06/30 05:47:35;;;;;;;4.37;3.10;;;20.00;99.90;;;;;;5112456;28;20412;-54
2023/06/30 05:50:02;;;;;;;4.70;4.20;;;19.70;99.90;;;;;;5113637;28;20420;-53
2023/06/30 05:52:29;;;;;;;5.47;3.75;;;19.50;99.90;;;;;;5113163;28;20490;-53
2023/06/30 05:54:56;;;;;;;5.72;4.35;;;19.30;99.90;;;;;;5111875;28;20446;-53
2023/06/30 05:57:26;;;;;;;4.25;3.85;;;19.10;99.90;;;;;;5113372;28;20789;-55
2023/06/30 05:59:53;;;;;;;5.63;5.03;;;19.10;99.90;;;;;;5109839;28;20745;-55
2023/06/30 06:02:20;;;;;;;5.35;4.85;;;19.20;99.90;;;;;;5110738;28;20416;-54
2023/06/30 06:04:51;;;;;;;4.00;3.70;;;19.20;99.90;;;;;;5112192;28;20420;-52
2023/06/30 06:07:18;;;;;;;4.85;4.45;;;19.20;99.90;;;;;;5112273;28;20443;-55
2023/06/30 06:09:45;;;;;;;5.35;4.85;;;19.20;99.90;;;;;;5111596;28;20428;-52
2023/06/30 06:12:12;;;;;;;5.47;4.97;;;19.20;99.90;;;;;;5111812;28;20416;-52
2023/06/30 06:14:41;;;;;;;4.68;4.38;;;19.10;99.90;;;;;;5112497;28;20480;-53
2023/06/30 06:17:08;;;;;;;5.90;5.30;;;19.00;99.90;;;;;;5110155;28;20440;-54
2023/06/30 06:19:35;;;;;;;6.20;5.53;;;19.10;99.90;;;;;;5121817;27;20712;-55
2023/06/30 06:22:02;;;;;;;6.45;5.60;;;19.00;99.90;;;;;;5121719;27;20875;-51
2023/06/30 06:24:29;;;;;;;6.18;5.57;;;19.10;99.90;;;;;;5124657;27;20424;-53
2023/06/30 06:26:56;;;;;;;5.67;5.17;;;19.10;99.90;;;;;;5129388;27;20872;-52
2023/06/30 06:29:23;;;;;;;5.03;4.63;;;19.10;99.90;;;;;;5134569;28;20414;-51
2023/06/30 06:31:53;;;;;;;5.53;5.03;;;19.20;99.90;;;;;;5132037;28;20853;-51
2023/06/30 06:34:20;;;;;;;5.20;4.70;;;19.40;99.90;;;;;;5130636;28;20426;-53
2023/06/30 06:36:48;;;;;;;4.80;4.40;;;19.60;99.90;;;;;;5131401;28;20422;-53
2023/06/30 06:39:15;;;;;;;3.60;3.30;;;19.70;99.90;;;;;;5130003;28;20784;-51
2023/06/30 06:41:42;;;;;;;5.63;5.00;;;19.90;99.90;;;;;;5123532;28;20911;-52
2023/06/30 06:44:09;;;;;;;6.03;4.30;;;19.90;99.90;;;;;;5122845;27;20833;-53
2023/06/30 06:46:36;;;;;;;4.60;4.18;;;20.10;99.90;;;;;;5128269;27;20501;-52
2023/06/30 06:49:04;;;;;;;5.40;4.50;;;20.10;99.90;;;;;;5126540;28;20870;-52
2023/06/30 06:51:33;;;;;;;4.40;4.03;;;20.00;99.90;;;;;;5132545;28;20430;-48
2023/06/30 06:54:00;;;;;;;5.60;5.10;;;20.00;99.90;;;;;;5131556;28;20498;-53
2023/06/30 06:56:27;;;;;;;4.97;4.57;;;19.90;99.90;;;;;;5116162;28;20423;-53
2023/06/30 06:58:54;;;;;;;5.18;4.68;;;19.90;99.90;;;;;;5131072;28;20854;-52
2023/06/30 07:01:21;;;;;;;5.63;5.22;;;19.90;99.90;;;;;;5113898;28;20515;-50
2023/06/30 07:03:48;;;;;;;6.10;4.32;;;20.00;99.90;;;;;;5110115;28;20608;-54
2023/06/30 07:06:21;;;;;;;4.50;3.83;;;20.00;99.90;;;;;;5111535;28;20561;-54
2023/06/30 07:08:48;;;;;;;5.47;4.70;;;20.10;99.90;;;;;;5125845;28;20414;-51
2023/06/30 07:11:15;;;;;;;5.47;4.93;;;20.20;99.90;;;;;;5131125;28;20834;-50
2023/06/30 07:13:42;;;;;;;5.15;4.43;;;20.30;99.90;;;;;;5113767;28;20823;-50
2023/06/30 07:16:10;;;;;;;4.20;3.40;;;20.20;99.90;;;;;;5113780;28;20912;-54
2023/06/30 07:18:37;;;;;;;5.40;4.10;;;20.30;99.90;;;;;;5121963;27;20849;-51
2023/06/30 07:21:04;;;;;;;5.60;4.15;;;20.50;99.90;;;;;;5131416;28;20426;-50
2023/06/30 07:23:33;;;;;;;4.93;4.22;;;20.50;99.90;;;;;;5116884;28;20840;-52
2023/06/30 07:26:00;;;;;;;5.00;3.95;;;20.50;99.90;;;;;;5113299;28;20485;-53
2023/06/30 07:28:27;;;;;;;4.78;3.80;;;20.60;99.90;;;;;;5113738;28;20456;-53
2023/06/30 07:30:54;;;;;;;4.80;4.35;;;20.60;99.90;;;;;;5111834;28;20488;-54
2023/06/30 07:33:21;;;;;;;4.50;4.10;;;20.60;99.90;;;;;;5110413;28;20486;-52
2023/06/30 07:35:50;;;;;;;5.53;4.60;;;20.50;99.90;;;;;;5111672;28;20416;-56
2023/06/30 07:38:17;;;;;;;2.97;2.67;;;20.50;99.90;;;;;;5114511;28;20454;-53
2023/06/30 07:40:45;;;;;;;4.00;2.75;;;20.60;99.90;;;;;;5114282;28;20432;-55
2023/06/30 07:43:12;;;;;;;4.97;3.00;;;20.90;99.90;;;;;;5120256;27;20440;-53
2023/06/30 07:45:39;;;;;;;4.22;3.33;;;21.00;99.90;;;;;;5124931;27;20422;-51
2023/06/30 07:48:07;;;;;;;3.90;3.40;;;21.20;99.90;;;;;;5116027;27;20424;-54
2023/06/30 07:50:34;;;;;;;4.40;3.40;;;21.20;99.90;;;;;;5115539;28;20698;-50
2023/06/30 07:53:03;;;;;;;3.65;2.63;;;21.10;99.90;;;;;;5115528;28;20835;-55
2023/06/30 07:55:31;;;;;;;3.90;3.40;;;21.10;99.90;;;;;;5115490;28;21005;-53
2023/06/30 07:57:59;;;;;;;4.30;2.80;;;21.10;99.90;;;;;;5114419;28;20489;-53
2023/06/30 08:00:28;;;;;;;5.05;3.22;;;21.10;99.90;;;;;;5116460;28;20789;-52
2023/06/30 08:02:56;;;;;;;6.60;4.30;;;21.10;99.90;;;;;;5115534;27;20435;-54
2023/06/30 08:05:23;;;;;;;3.30;2.70;;;21.20;99.90;;;;;;5112705;27;20432;-54
2023/06/30 08:07:50;;;;;;;6.30;3.15;;;21.30;99.90;;;;;;5114566;28;20408;-55
2023/06/30 08:10:17;;;;;;;7.45;4.32;;;21.30;99.90;;;;;;5114896;28;20424;-53
2023/06/30 08:12:44;;;;;;;6.97;3.60;;;21.40;97.60;;;;;;5115616;28;20489;-54
2023/06/30 08:15:12;;;;;;;5.13;3.50;;;21.30;99.90;;;;;;5113864;28;20424;-56
2023/06/30 08:17:39;;;;;;;5.43;3.60;;;21.20;99.90;;;;;;5111248;28;20424;-49
2023/06/30 08:20:08;;;;;;;7.38;3.75;;;21.00;99.90;;;;;;5113415;28;20415;-51
2023/06/30 08:22:35;;;;;;;5.68;3.35;;;21.00;99.90;;;;;;5113319;28;20424;-54
2023/06/30 08:25:02;;;;;;;6.88;3.75;;;21.10;99.90;;;;;;5114251;27;20479;-52
2023/06/30 08:27:30;;;;;;;8.43;5.07;;;20.90;99.90;;;;;;5114613;28;20424;-54
2023/06/30 08:29:57;;;;;;;6.85;3.85;;;20.90;99.90;;;;;;5113636;28;20485;-53
2023/06/30 08:32:26;;;;;;;7.35;3.90;;;20.90;99.90;;;;;;5112516;28;20520;-53
2023/06/30 08:34:53;;;;;;;5.55;3.88;;;20.90;99.90;;;;;;5113742;28;20515;-53
2023/06/30 08:37:19;;;;;;;5.40;3.27;;;20.80;99.90;;;;;;5113464;28;20480;-54
2023/06/30 08:39:46;;;;;;;5.40;3.70;;;20.60;99.90;;;;;;5111223;28;20477;-52
2023/06/30 08:42:17;;;;;;;8.45;4.72;;;20.70;99.90;;;;;;5110538;28;20424;-52
2023/06/30 08:44:49;;;;;;;7.55;4.13;;;20.50;99.90;;;;;;5111230;28;20453;-53
2023/06/30 08:47:16;;;;;;;5.95;3.70;;;20.40;99.90;;;;;;5111195;28;20416;-52
2023/06/30 08:49:47;;;;;;;8.00;5.22;;;20.60;99.90;;;;;;5109681;28;20450;-48
2023/06/30 08:52:15;;;;;;;5.60;4.20;;;20.60;99.90;;;;;;5112135;28;20424;-47
2023/06/30 08:54:43;;;;;;;9.00;4.20;;;20.20;99.90;;;;;;5122727;27;20424;-50
2023/06/30 08:57:15;;;;;;;8.60;5.33;;;20.10;99.90;;;;;;5127022;27;20429;-48
2023/06/30 08:59:42;;;;;;;7.28;4.82;;;20.00;99.90;;;;;;5123224;27;20453;-49
2023/06/30 09:02:09;;;;;;;12.32;5.78;;;19.90;99.90;;;;;;5112141;28;20420;-48
2023/06/30 09:04:37;;;;;;;7.03;4.75;;;19.80;99.90;;;;;;5110349;28;20456;-50
2023/06/30 09:07:10;;;;;;;7.78;4.63;;;19.50;99.90;;;;;;5131116;27;20435;-48
2023/06/30 09:09:45;;;;;;;7.82;4.78;;;19.50;99.90;;;;;;5132752;27;20418;-46
2023/06/30 09:12:13;;;;;;;7.55;5.00;;;19.50;99.90;;;;;;5131400;27;21081;-49
2023/06/30 09:14:43;;;;;;;7.70;4.32;;;19.50;99.90;;;;;;5131926;27;20434;-47
2023/06/30 09:17:11;;;;;;;6.30;4.37;;;19.70;99.90;;;;;;5128027;27;20546;-46
2023/06/30 09:19:39;;;;;;;7.40;5.13;;;19.70;99.90;;;;;;5133750;27;20490;-45
2023/06/30 09:22:09;;;;;;;7.80;4.53;;;19.80;99.90;;;;;;5129951;27;20418;-45
2023/06/30 09:24:36;;;;;;;7.13;4.85;;;19.50;99.90;;;;;;5130082;27;20483;-49
2023/06/30 09:27:04;;;;;;;7.10;4.45;;;19.50;99.90;;;;;;5129923;27;20888;-46
2023/06/30 09:29:34;;;;;;;5.85;4.03;;;19.70;99.90;;;;;;5131247;27;20417;-46
2023/06/30 09:32:02;;;;;;;7.30;5.60;;;19.90;99.90;;;;;;5128093;27;20693;-47
2023/06/30 09:34:29;;;;;;;6.82;5.38;;;19.80;99.90;;;;;;5130038;27;20798;-50
2023/06/30 09:36:56;;;;;;;6.90;4.80;;;19.70;99.90;;;;;;5131266;27;20498;-52
2023/06/30 09:39:25;;;;;;;5.70;4.18;;;19.60;99.90;;;;;;5128123;27;20434;-47
2023/06/30 09:41:52;;;;;;;7.78;4.57;;;19.50;99.90;;;;;;5123717;27;20515;-45
2023/06/30 09:44:20;;;;;;;7.38;5.25;;;19.40;99.90;;;;;;5130491;27;20446;-52
2023/06/30 09:46:48;;;;;;;7.57;5.40;;;19.20;99.90;;;;;;5128844;27;20684;-48
2023/06/30 09:49:25;;;;;;;6.68;4.68;;;18.90;99.90;;;;;;5132268;27;20437;-50
2023/06/30 09:51:52;;;;;;;7.43;4.35;;;19.10;99.90;;;;;;5131591;27;20418;-50
2023/06/30 09:54:19;;;;;;;6.82;4.60;;;19.50;99.90;;;;;;5129804;27;20895;-44
2023/06/30 09:56:47;;;;;;;6.28;3.90;;;19.60;99.90;;;;;;5130135;27;20422;-48
2023/06/30 09:59:15;;;;;;;6.65;4.70;;;19.80;99.90;;;;;;5132964;27;20479;-45
2023/06/30 10:01:42;;;;;;;5.57;3.80;;;19.90;99.90;;;;;;5125794;27;20499;-46
2023/06/30 10:04:09;;;;;;;6.93;4.30;;;20.10;99.90;;;;;;5132293;27;21070;-47
2023/06/30 10:06:38;;;;;;;5.88;4.20;;;20.00;99.90;;;;;;5130806;27;20529;-49
2023/06/30 10:09:07;;;;;;;4.37;3.63;;;20.00;99.90;;;;;;5130388;27;20426;-49
2023/06/30 10:11:36;;;;;;;6.13;3.83;;;20.10;99.90;;;;;;5128986;27;20419;-47
2023/06/30 10:14:06;;;;;;;5.43;4.03;;;20.30;99.90;;;;;;5121534;27;20605;-46
2023/06/30 10:16:33;;;;;;;6.13;3.90;;;20.20;99.90;;;;;;5129646;27;20431;-47
2023/06/30 10:19:03;;;;;;;5.70;3.70;;;20.30;99.90;;;;;;5128284;27;20455;-50
2023/06/30 10:21:30;;;;;;;7.72;3.58;;;20.10;99.90;;;;;;5127742;27;20452;-50
2023/06/30 10:23:58;;;;;;;6.30;4.10;;;20.20;99.90;;;;;;5126014;27;20641;-46
2023/06/30 10:26:26;;;;;;;5.90;3.50;;;20.30;99.90;;;;;;5123213;27;20417;-48
2023/06/30 10:28:54;;;;;;;4.78;3.65;;;20.30;99.90;;;;;;5129564;27;20777;-49
2023/06/30 10:31:23;;;;;;;5.43;3.33;;;20.20;99.90;;;;;;5129694;28;20727;-50
2023/06/30 10:33:50;;;;;;;4.55;3.75;;;20.10;99.90;;;;;;5132552;28;20430;-49
2023/06/30 10:36:18;;;;;;;6.07;3.80;;;20.10;99.90;;;;;;5130703;28;20438;-44
2023/06/30 10:38:46;;;;;;;5.90;3.88;;;20.20;99.90;;;;;;5131589;28;20514;-47
2023/06/30 10:41:16;;;;;;;4.50;3.67;;;20.30;99.90;;;;;;5131576;28;20823;-46
2023/06/30 10:44:06;;;;;;;6.32;4.50;;;20.40;99.90;;;;;;5131193;28;20430;-49
2023/06/30 10:47:02;;;;;;;4.22;3.35;;;20.30;99.90;;;;;;5133228;28;20801;-47
2023/06/30 10:49:30;;;;;;;5.60;3.70;;;20.60;99.90;;;;;;5062781;28;20935;-51
2023/06/30 10:51:58;;;;;;;8.25;4.80;;;20.80;99.90;;;;;;5127940;28;20521;-47
2023/06/30 10:54:27;;;;;;;6.75;4.10;;;21.10;99.90;;;;;;5130638;28;20434;-46
2023/06/30 10:57:08;;;;;;;6.90;4.85;;;21.30;99.90;;;;;;5131982;28;20483;-46
2023/06/30 10:59:40;;;;;;;7.50;5.43;;;21.30;99.90;;;;;;5129479;28;20922;-49
2023/06/30 11:02:29;;;;;;;7.17;5.00;;;21.40;99.90;;;;;;5121449;28;20584;-47
2023/06/30 11:05:18;;;;;;;7.97;5.82;;;21.40;99.90;;;;;;5116718;27;20795;-51
2023/06/30 11:07:47;;;;;;;7.20;5.30;;;21.40;99.90;;;;;;5121781;27;20808;-50
2023/06/30 11:10:25;;;;;;;9.30;5.90;;;21.40;99.90;;;;;;5118177;27;20519;-51
2023/06/30 11:12:54;;;;;;;6.05;5.20;;;21.40;99.90;;;;;;5111559;28;20428;-50
2023/06/30 11:15:30;;;;;;;8.10;5.60;;;21.40;99.90;;;;;;5114500;27;20496;-49
2023/06/30 11:18:01;;;;;;;6.05;5.07;;;21.20;99.90;;;;;;5117569;27;20481;-52
2023/06/30 11:20:29;;;;;;;8.23;7.22;;;21.10;99.90;;;;;;5133176;27;20423;-53
2023/06/30 11:22:58;;;;;;;7.32;5.38;;;21.10;99.90;;;;;;5131980;27;20445;-55
2023/06/30 11:25:25;;;;;;;9.07;6.33;;;21.20;99.90;;;;;;5133917;27;20520;-58
2023/06/30 11:27:53;;;;;;;8.43;7.07;;;21.20;99.90;;;;;;5134281;27;20438;-58
2023/06/30 11:30:21;;;;;;;9.27;6.95;;;21.40;99.90;;;;;;5134418;27;20494;-58
2023/06/30 11:32:49;;;;;;;9.80;6.70;;;21.40;99.90;;;;;;5132373;27;20425;-59
2023/06/30 11:35:19;;;;;;;10.98;8.63;;;21.60;99.90;;;;;;5121333;27;20485;-58
2023/06/30 11:37:49;;;;;;;12.27;8.43;;;21.70;99.90;;;;;;5112499;28;20431;-59
2023/06/30 11:40:16;;;;;;;11.00;8.07;;;21.40;99.90;;;;;;5110885;28;20923;-59
2023/06/30 11:42:43;;;;;;;10.20;7.75;;;21.40;99.90;;;;;;5125872;27;20783;-58
2023/06/30 11:45:16;;;;;;;12.35;8.90;;;21.20;99.90;;;;;;5133454;27;20507;-59
2023/06/30 11:47:46;;;;;;;11.25;8.63;;;21.10;99.90;;;;;;5133621;27;20446;-59
2023/06/30 11:50:14;;;;;;;11.60;8.90;;;21.20;99.90;;;;;;5132648;27;20499;-59
2023/06/30 11:52:44;;;;;;;9.15;7.80;;;21.20;99.90;;;;;;5134747;27;20466;-58
2023/06/30 11:55:13;;;;;;;12.82;9.73;;;21.30;99.90;;;;;;5132137;27;20433;-58
2023/06/30 11:57:41;;;;;;;12.10;9.30;;;21.40;99.90;;;;;;5132732;27;20520;-58
2023/06/30 12:00:13;;;;;;;10.25;8.38;;;21.50;99.90;;;;;;5133102;27;20431;-60
2023/06/30 12:02:45;;;;;;;10.00;8.20;;;21.70;99.90;;;;;;5126195;27;20793;-58
2023/06/30 12:05:14;;;;;;;10.93;8.60;;;21.70;99.90;;;;;;5130964;27;20462;-58
2023/06/30 12:07:44;;;;;;;12.07;8.68;;;21.80;99.90;;;;;;5125055;27;20794;-58
2023/06/30 12:10:11;;;;;;;9.27;7.43;;;21.80;99.90;;;;;;5131535;27;20422;-57
2023/06/30 12:12:39;;;;;;;11.45;8.23;;;21.80;99.90;;;;;;5132593;27;20512;-57
2023/06/30 12:15:09;;;;;;;10.13;8.25;;;21.80;99.90;;;;;;5133774;27;20434;-58
2023/06/30 12:17:39;;;;;;;11.57;8.68;;;21.80;99.90;;;;;;5133568;27;20482;-57
2023/06/30 12:20:07;;;;;;;12.52;9.15;;;21.80;99.90;;;;;;5133384;27;20692;-58
2023/06/30 12:22:36;;;;;;;11.35;8.43;;;21.60;99.90;;;;;;5133689;27;20433;-59
2023/06/30 12:25:07;;;;;;;10.10;7.60;;;21.40;99.90;;;;;;5132397;27;20432;-58
2023/06/30 12:27:38;;;;;;;10.60;7.75;;;21.50;99.90;;;;;;5133641;27;20911;-58
2023/06/30 12:30:14;;;;;;;10.43;8.18;;;21.60;99.90;;;;;;5134359;27;20426;-57
2023/06/30 12:32:41;;;;;;;10.10;7.60;;;21.70;99.90;;;;;;5131053;27;20774;-59
2023/06/30 12:35:09;;;;;;;10.68;7.50;;;21.60;99.90;;;;;;5134560;27;20505;-57
2023/06/30 12:37:36;;;;;;;9.95;7.43;;;21.60;99.90;;;;;;5134745;27;20441;-53
2023/06/30 12:40:06;;;;;;;12.82;7.88;;;21.80;99.90;;;;;;5125567;27;20432;-54
2023/06/30 12:42:34;;;;;;;8.53;7.10;;;21.90;99.90;;;;;;5124615;27;20455;-54
2023/06/30 12:45:01;;;;;;;9.73;7.63;;;22.10;90.90;;;;;;5118793;27;20484;-55
2023/06/30 12:47:28;;;;;;;13.77;8.10;;;22.40;81.00;;;;;;5128578;27;20421;-54
2023/06/30 12:49:55;;;;;;;10.05;8.00;;;22.40;51.50;;;;;;5131107;27;20707;-58
2023/06/30 12:52:22;;;;;;;10.52;6.90;;;22.40;50.90;;;;;;5132658;27;20418;-55